sensor_id;sensor_type;location;lat;lon;timestamp;P1;durP1;ratioP1;P2;durP2;ratioP2
43363;SDS011;40636;52.424;-1.948;2022-09-16T00:00:54;4.95;;;0.82;;
43363;SDS011;40636;52.424;-1.948;2022-09-16T00:03:21;2.83;;;0.90;;
43363;SDS011;40636;52.424;-1.948;2022-09-16T00:05:49;2.47;;;0.80;;
43363;SDS011;40636;52.424;-1.948;2022-09-16T00:08:17;1.80;;;1.00;;
43363;SDS011;40636;52.424;-1.948;2022-09-16T00:10:46;1.98;;;1.23;;
43363;SDS011;40636;52.424;-1.948;2022-09-16T00:13:14;2.45;;;1.05;;
43363;SDS011;40636;52.424;-1.948;2022-09-16T00:15:41;3.05;;;0.88;;
43363;SDS011;40636;52.424;-1.948;2022-09-16T00:18:10;1.05;;;0.90;;
43363;SDS011;40636;52.424;-1.948;2022-09-16T00:20:44;3.15;;;1.27;;
43363;SDS011;40636;52.424;-1.948;2022-09-16T00:23:11;2.15;;;1.15;;
43363;SDS011;40636;52.424;-1.948;2022-09-16T00:25:38;2.53;;;0.88;;
43363;SDS011;40636;52.424;-1.948;2022-09-16T00:28:05;4.85;;;1.00;;
43363;SDS011;40636;52.424;-1.948;2022-09-16T00:30:32;2.53;;;0.95;;
43363;SDS011;40636;52.424;-1.948;2022-09-16T00:32:59;3.08;;;1.00;;
43363;SDS011;40636;52.424;-1.948;2022-09-16T00:35:25;3.83;;;0.80;;
43363;SDS011;40636;52.424;-1.948;2022-09-16T00:37:52;3.35;;;0.82;;
43363;SDS011;40636;52.424;-1.948;2022-09-16T00:40:19;5.78;;;1.17;;
43363;SDS011;40636;52.424;-1.948;2022-09-16T00:42:46;8.48;;;1.10;;
43363;SDS011;40636;52.424;-1.948;2022-09-16T00:45:23;1.95;;;0.80;;
43363;SDS011;40636;52.424;-1.948;2022-09-16T00:47:54;1.30;;;0.60;;
43363;SDS011;40636;52.424;-1.948;2022-09-16T00:50:40;1.95;;;0.60;;
43363;SDS011;40636;52.424;-1.948;2022-09-16T00:53:10;5.28;;;1.40;;
43363;SDS011;40636;52.424;-1.948;2022-09-16T00:55:41;6.38;;;1.00;;
43363;SDS011;40636;52.424;-1.948;2022-09-16T00:58:13;3.17;;;0.95;;
43363;SDS011;40636;52.424;-1.948;2022-09-16T01:00:51;5.88;;;0.98;;
43363;SDS011;40636;52.424;-1.948;2022-09-16T01:03:18;2.17;;;1.42;;
43363;SDS011;40636;52.424;-1.948;2022-09-16T01:05:45;1.75;;;0.93;;
43363;SDS011;40636;52.424;-1.948;2022-09-16T01:08:15;4.30;;;1.38;;
43363;SDS011;40636;52.424;-1.948;2022-09-16T01:10:43;3.10;;;0.90;;
43363;SDS011;40636;52.424;-1.948;2022-09-16T01:13:18;2.78;;;0.93;;
43363;SDS011;40636;52.424;-1.948;2022-09-16T01:21:17;2.92;;;1.00;;
43363;SDS011;40636;52.424;-1.948;2022-09-16T01:32:48;0.55;;;0.50;;
43363;SDS011;40636;52.424;-1.948;2022-09-16T01:40:51;2.25;;;1.00;;
43363;SDS011;40636;52.424;-1.948;2022-09-16T01:46:29;3.83;;;0.98;;
43363;SDS011;40636;52.424;-1.948;2022-09-16T01:52:05;4.93;;;0.90;;
43363;SDS011;40636;52.424;-1.948;2022-09-16T01:57:52;5.30;;;1.05;;
43363;SDS011;40636;52.424;-1.948;2022-09-16T02:00:27;4.60;;;1.15;;
43363;SDS011;40636;52.424;-1.948;2022-09-16T02:03:10;3.35;;;1.30;;
43363;SDS011;40636;52.424;-1.948;2022-09-16T02:08:20;3.20;;;0.87;;
43363;SDS011;40636;52.424;-1.948;2022-09-16T02:11:03;7.65;;;1.20;;
43363;SDS011;40636;52.424;-1.948;2022-09-16T02:13:35;1.90;;;0.90;;
43363;SDS011;40636;52.424;-1.948;2022-09-16T02:16:23;5.25;;;1.88;;
43363;SDS011;40636;52.424;-1.948;2022-09-16T02:18:59;4.05;;;1.00;;
43363;SDS011;40636;52.424;-1.948;2022-09-16T02:21:30;3.13;;;1.20;;
43363;SDS011;40636;52.424;-1.948;2022-09-16T02:24:02;2.20;;;0.90;;
43363;SDS011;40636;52.424;-1.948;2022-09-16T02:26:37;2.15;;;1.10;;
43363;SDS011;40636;52.424;-1.948;2022-09-16T02:29:12;3.65;;;1.02;;
43363;SDS011;40636;52.424;-1.948;2022-09-16T02:31:44;1.85;;;0.98;;
43363;SDS011;40636;52.424;-1.948;2022-09-16T02:34:17;2.83;;;1.13;;
43363;SDS011;40636;52.424;-1.948;2022-09-16T02:36:48;4.90;;;1.15;;
43363;SDS011;40636;52.424;-1.948;2022-09-16T02:39:32;4.22;;;0.90;;
43363;SDS011;40636;52.424;-1.948;2022-09-16T02:42:03;5.55;;;1.00;;
43363;SDS011;40636;52.424;-1.948;2022-09-16T02:44:30;3.65;;;0.73;;
43363;SDS011;40636;52.424;-1.948;2022-09-16T02:47:00;1.77;;;0.80;;
43363;SDS011;40636;52.424;-1.948;2022-09-16T02:58:08;3.90;;;1.08;;
43363;SDS011;40636;52.424;-1.948;2022-09-16T03:00:37;1.00;;;0.75;;
43363;SDS011;40636;52.424;-1.948;2022-09-16T03:03:08;0.75;;;0.75;;
43363;SDS011;40636;52.424;-1.948;2022-09-16T03:05:58;1.98;;;1.00;;
43363;SDS011;40636;52.424;-1.948;2022-09-16T03:08:32;5.55;;;0.77;;
43363;SDS011;40636;52.424;-1.948;2022-09-16T03:11:07;1.42;;;0.82;;
43363;SDS011;40636;52.424;-1.948;2022-09-16T03:22:55;2.42;;;1.10;;
43363;SDS011;40636;52.424;-1.948;2022-09-16T03:30:53;3.78;;;1.00;;
43363;SDS011;40636;52.424;-1.948;2022-09-16T03:34:12;1.23;;;0.88;;
43363;SDS011;40636;52.424;-1.948;2022-09-16T03:36:19;2.53;;;1.00;;
43363;SDS011;40636;52.424;-1.948;2022-09-16T03:38:52;4.85;;;1.05;;
43363;SDS011;40636;52.424;-1.948;2022-09-16T03:41:20;1.83;;;0.75;;
43363;SDS011;40636;52.424;-1.948;2022-09-16T03:43:51;2.67;;;1.00;;
43363;SDS011;40636;52.424;-1.948;2022-09-16T03:46:19;2.08;;;0.77;;
43363;SDS011;40636;52.424;-1.948;2022-09-16T03:48:47;6.28;;;1.35;;
43363;SDS011;40636;52.424;-1.948;2022-09-16T03:51:13;3.03;;;1.08;;
43363;SDS011;40636;52.424;-1.948;2022-09-16T03:53:41;8.13;;;1.13;;
43363;SDS011;40636;52.424;-1.948;2022-09-16T03:56:08;3.08;;;1.27;;
43363;SDS011;40636;52.424;-1.948;2022-09-16T03:58:36;5.90;;;1.00;;
43363;SDS011;40636;52.424;-1.948;2022-09-16T04:01:02;9.27;;;1.42;;
43363;SDS011;40636;52.424;-1.948;2022-09-16T04:03:29;2.88;;;1.20;;
43363;SDS011;40636;52.424;-1.948;2022-09-16T04:05:58;2.25;;;1.85;;
43363;SDS011;40636;52.424;-1.948;2022-09-16T04:08:25;1.95;;;0.80;;
43363;SDS011;40636;52.424;-1.948;2022-09-16T04:10:55;1.65;;;1.08;;
43363;SDS011;40636;52.424;-1.948;2022-09-16T04:13:29;1.50;;;0.80;;
43363;SDS011;40636;52.424;-1.948;2022-09-16T04:15:57;4.22;;;1.48;;
43363;SDS011;40636;52.424;-1.948;2022-09-16T04:18:25;2.50;;;1.10;;
43363;SDS011;40636;52.424;-1.948;2022-09-16T04:20:55;2.55;;;1.02;;
43363;SDS011;40636;52.424;-1.948;2022-09-16T04:23:24;1.10;;;1.02;;
43363;SDS011;40636;52.424;-1.948;2022-09-16T04:25:58;2.65;;;1.08;;
43363;SDS011;40636;52.424;-1.948;2022-09-16T04:28:26;3.45;;;1.10;;
43363;SDS011;40636;52.424;-1.948;2022-09-16T04:30:54;5.15;;;1.00;;
43363;SDS011;40636;52.424;-1.948;2022-09-16T04:33:26;2.95;;;0.90;;
43363;SDS011;40636;52.424;-1.948;2022-09-16T04:36:00;3.88;;;0.73;;
43363;SDS011;40636;52.424;-1.948;2022-09-16T04:38:27;2.00;;;1.00;;
43363;SDS011;40636;52.424;-1.948;2022-09-16T04:41:04;1.55;;;1.10;;
43363;SDS011;40636;52.424;-1.948;2022-09-16T04:43:33;2.50;;;1.13;;
43363;SDS011;40636;52.424;-1.948;2022-09-16T04:46:00;2.85;;;1.10;;
43363;SDS011;40636;52.424;-1.948;2022-09-16T04:48:28;7.50;;;1.15;;
43363;SDS011;40636;52.424;-1.948;2022-09-16T04:51:06;3.38;;;1.17;;
43363;SDS011;40636;52.424;-1.948;2022-09-16T04:53:35;3.08;;;1.10;;
43363;SDS011;40636;52.424;-1.948;2022-09-16T04:56:04;3.38;;;1.60;;
43363;SDS011;40636;52.424;-1.948;2022-09-16T04:58:32;3.67;;;1.67;;
43363;SDS011;40636;52.424;-1.948;2022-09-16T05:01:18;2.28;;;1.02;;
43363;SDS011;40636;52.424;-1.948;2022-09-16T05:03:47;4.03;;;0.95;;
43363;SDS011;40636;52.424;-1.948;2022-09-16T05:06:19;1.73;;;0.93;;
43363;SDS011;40636;52.424;-1.948;2022-09-16T05:08:48;1.95;;;1.00;;
43363;SDS011;40636;52.424;-1.948;2022-09-16T05:11:17;2.42;;;1.08;;
43363;SDS011;40636;52.424;-1.948;2022-09-16T05:13:49;1.58;;;0.80;;
43363;SDS011;40636;52.424;-1.948;2022-09-16T05:16:17;2.15;;;1.10;;
43363;SDS011;40636;52.424;-1.948;2022-09-16T05:18:46;4.65;;;1.52;;
43363;SDS011;40636;52.424;-1.948;2022-09-16T05:21:15;1.77;;;1.23;;
43363;SDS011;40636;52.424;-1.948;2022-09-16T05:23:45;2.72;;;1.23;;
43363;SDS011;40636;52.424;-1.948;2022-09-16T05:26:15;6.18;;;1.42;;
43363;SDS011;40636;52.424;-1.948;2022-09-16T05:28:46;1.98;;;1.33;;
43363;SDS011;40636;52.424;-1.948;2022-09-16T05:31:14;1.55;;;1.30;;
43363;SDS011;40636;52.424;-1.948;2022-09-16T05:33:46;5.40;;;1.23;;
43363;SDS011;40636;52.424;-1.948;2022-09-16T05:36:20;1.83;;;1.65;;
43363;SDS011;40636;52.424;-1.948;2022-09-16T05:38:47;3.30;;;1.42;;
43363;SDS011;40636;52.424;-1.948;2022-09-16T05:41:35;6.55;;;1.35;;
43363;SDS011;40636;52.424;-1.948;2022-09-16T05:44:02;2.67;;;1.00;;
43363;SDS011;40636;52.424;-1.948;2022-09-16T05:46:29;2.20;;;1.70;;
43363;SDS011;40636;52.424;-1.948;2022-09-16T05:48:56;3.25;;;1.40;;
43363;SDS011;40636;52.424;-1.948;2022-09-16T05:51:23;4.38;;;1.52;;
43363;SDS011;40636;52.424;-1.948;2022-09-16T05:53:51;4.13;;;1.95;;
43363;SDS011;40636;52.424;-1.948;2022-09-16T05:56:20;7.55;;;1.52;;
43363;SDS011;40636;52.424;-1.948;2022-09-16T05:58:50;3.13;;;1.92;;
43363;SDS011;40636;52.424;-1.948;2022-09-16T06:01:21;3.95;;;1.40;;
43363;SDS011;40636;52.424;-1.948;2022-09-16T06:03:50;4.00;;;1.30;;
43363;SDS011;40636;52.424;-1.948;2022-09-16T06:06:31;4.43;;;1.40;;
43363;SDS011;40636;52.424;-1.948;2022-09-16T06:09:09;4.57;;;1.30;;
43363;SDS011;40636;52.424;-1.948;2022-09-16T06:11:39;2.88;;;0.90;;
43363;SDS011;40636;52.424;-1.948;2022-09-16T06:14:08;2.55;;;1.30;;
43363;SDS011;40636;52.424;-1.948;2022-09-16T06:16:35;1.13;;;0.90;;
43363;SDS011;40636;52.424;-1.948;2022-09-16T06:19:04;1.52;;;1.00;;
43363;SDS011;40636;52.424;-1.948;2022-09-16T06:21:36;1.27;;;1.00;;
43363;SDS011;40636;52.424;-1.948;2022-09-16T06:24:03;1.33;;;1.00;;
43363;SDS011;40636;52.424;-1.948;2022-09-16T06:26:35;3.67;;;1.10;;
43363;SDS011;40636;52.424;-1.948;2022-09-16T06:29:04;2.45;;;1.40;;
43363;SDS011;40636;52.424;-1.948;2022-09-16T06:31:31;3.75;;;1.20;;
43363;SDS011;40636;52.424;-1.948;2022-09-16T06:33:59;3.60;;;1.20;;
43363;SDS011;40636;52.424;-1.948;2022-09-16T06:36:33;2.22;;;1.45;;
43363;SDS011;40636;52.424;-1.948;2022-09-16T06:39:05;2.00;;;1.30;;
43363;SDS011;40636;52.424;-1.948;2022-09-16T06:41:32;3.33;;;2.20;;
43363;SDS011;40636;52.424;-1.948;2022-09-16T06:44:01;7.25;;;1.17;;
43363;SDS011;40636;52.424;-1.948;2022-09-16T06:46:28;2.53;;;0.93;;
43363;SDS011;40636;52.424;-1.948;2022-09-16T06:48:55;8.02;;;1.40;;
43363;SDS011;40636;52.424;-1.948;2022-09-16T06:51:29;2.63;;;0.98;;
43363;SDS011;40636;52.424;-1.948;2022-09-16T06:54:01;2.47;;;1.17;;
43363;SDS011;40636;52.424;-1.948;2022-09-16T06:56:31;5.20;;;1.38;;
43363;SDS011;40636;52.424;-1.948;2022-09-16T06:59:04;4.43;;;1.52;;
43363;SDS011;40636;52.424;-1.948;2022-09-16T07:01:32;6.13;;;2.22;;
43363;SDS011;40636;52.424;-1.948;2022-09-16T07:04:06;3.97;;;2.13;;
43363;SDS011;40636;52.424;-1.948;2022-09-16T07:06:38;2.83;;;2.00;;
43363;SDS011;40636;52.424;-1.948;2022-09-16T07:09:26;2.20;;;1.70;;
43363;SDS011;40636;52.424;-1.948;2022-09-16T07:11:52;6.90;;;1.92;;
43363;SDS011;40636;52.424;-1.948;2022-09-16T07:14:21;3.03;;;1.63;;
43363;SDS011;40636;52.424;-1.948;2022-09-16T07:16:48;6.93;;;1.90;;
43363;SDS011;40636;52.424;-1.948;2022-09-16T07:19:15;5.15;;;2.97;;
43363;SDS011;40636;52.424;-1.948;2022-09-16T07:21:41;4.78;;;2.38;;
43363;SDS011;40636;52.424;-1.948;2022-09-16T07:24:12;3.28;;;2.10;;
43363;SDS011;40636;52.424;-1.948;2022-09-16T07:26:40;6.57;;;3.00;;
43363;SDS011;40636;52.424;-1.948;2022-09-16T07:29:09;4.45;;;2.45;;
43363;SDS011;40636;52.424;-1.948;2022-09-16T07:31:44;5.25;;;3.10;;
43363;SDS011;40636;52.424;-1.948;2022-09-16T07:36:42;10.20;;;2.92;;
43363;SDS011;40636;52.424;-1.948;2022-09-16T07:39:12;4.82;;;2.72;;
43363;SDS011;40636;52.424;-1.948;2022-09-16T07:41:41;4.82;;;2.55;;
43363;SDS011;40636;52.424;-1.948;2022-09-16T07:44:09;4.57;;;2.22;;
43363;SDS011;40636;52.424;-1.948;2022-09-16T07:46:38;4.93;;;2.47;;
43363;SDS011;40636;52.424;-1.948;2022-09-16T07:49:07;5.43;;;2.28;;
43363;SDS011;40636;52.424;-1.948;2022-09-16T07:51:36;2.10;;;1.92;;
43363;SDS011;40636;52.424;-1.948;2022-09-16T07:54:06;6.38;;;2.10;;
43363;SDS011;40636;52.424;-1.948;2022-09-16T07:56:35;3.22;;;1.70;;
43363;SDS011;40636;52.424;-1.948;2022-09-16T07:59:04;3.42;;;1.95;;
43363;SDS011;40636;52.424;-1.948;2022-09-16T08:01:33;4.10;;;1.58;;
43363;SDS011;40636;52.424;-1.948;2022-09-16T08:04:04;2.67;;;1.67;;
43363;SDS011;40636;52.424;-1.948;2022-09-16T08:06:31;3.13;;;2.40;;
43363;SDS011;40636;52.424;-1.948;2022-09-16T08:08:59;3.10;;;1.85;;
43363;SDS011;40636;52.424;-1.948;2022-09-16T08:11:46;1.50;;;1.30;;
43363;SDS011;40636;52.424;-1.948;2022-09-16T08:14:13;2.97;;;1.83;;
43363;SDS011;40636;52.424;-1.948;2022-09-16T08:16:40;8.18;;;1.70;;
43363;SDS011;40636;52.424;-1.948;2022-09-16T08:19:07;4.20;;;2.30;;
43363;SDS011;40636;52.424;-1.948;2022-09-16T08:21:34;3.67;;;1.83;;
43363;SDS011;40636;52.424;-1.948;2022-09-16T08:24:01;2.13;;;1.77;;
43363;SDS011;40636;52.424;-1.948;2022-09-16T08:26:29;6.32;;;1.73;;
43363;SDS011;40636;52.424;-1.948;2022-09-16T08:28:56;4.10;;;2.08;;
43363;SDS011;40636;52.424;-1.948;2022-09-16T08:31:33;3.08;;;1.60;;
43363;SDS011;40636;52.424;-1.948;2022-09-16T08:34:00;1.92;;;1.40;;
43363;SDS011;40636;52.424;-1.948;2022-09-16T08:36:27;4.50;;;1.58;;
43363;SDS011;40636;52.424;-1.948;2022-09-16T08:38:54;5.35;;;1.77;;
43363;SDS011;40636;52.424;-1.948;2022-09-16T08:49:57;1.15;;;0.93;;
43363;SDS011;40636;52.424;-1.948;2022-09-16T08:54:59;1.95;;;1.00;;
43363;SDS011;40636;52.424;-1.948;2022-09-16T08:57:30;2.53;;;1.23;;
43363;SDS011;40636;52.424;-1.948;2022-09-16T09:00:03;1.95;;;1.20;;
43363;SDS011;40636;52.424;-1.948;2022-09-16T09:02:41;2.17;;;1.08;;
43363;SDS011;40636;52.424;-1.948;2022-09-16T09:05:17;0.88;;;0.70;;
43363;SDS011;40636;52.424;-1.948;2022-09-16T09:10:46;3.30;;;1.00;;
43363;SDS011;40636;52.424;-1.948;2022-09-16T09:30:54;2.03;;;1.42;;
43363;SDS011;40636;52.424;-1.948;2022-09-16T09:33:37;1.42;;;0.70;;
43363;SDS011;40636;52.424;-1.948;2022-09-16T09:41:33;1.10;;;0.70;;
43363;SDS011;40636;52.424;-1.948;2022-09-16T09:55:25;0.40;;;0.40;;
43363;SDS011;40636;52.424;-1.948;2022-09-16T09:57:58;1.27;;;0.85;;
43363;SDS011;40636;52.424;-1.948;2022-09-16T10:00:27;1.20;;;0.77;;
43363;SDS011;40636;52.424;-1.948;2022-09-16T10:03:00;0.73;;;0.43;;
43363;SDS011;40636;52.424;-1.948;2022-09-16T10:05:54;1.55;;;0.57;;
43363;SDS011;40636;52.424;-1.948;2022-09-16T10:08:26;0.45;;;0.45;;
43363;SDS011;40636;52.424;-1.948;2022-09-16T10:10:57;0.47;;;0.40;;
43363;SDS011;40636;52.424;-1.948;2022-09-16T10:13:26;0.57;;;0.40;;
43363;SDS011;40636;52.424;-1.948;2022-09-16T10:16:08;0.40;;;0.40;;
43363;SDS011;40636;52.424;-1.948;2022-09-16T10:18:43;0.30;;;0.30;;
43363;SDS011;40636;52.424;-1.948;2022-09-16T10:21:11;0.93;;;0.40;;
43363;SDS011;40636;52.424;-1.948;2022-09-16T10:23:40;0.57;;;0.40;;
43363;SDS011;40636;52.424;-1.948;2022-09-16T10:26:20;0.30;;;0.30;;
43363;SDS011;40636;52.424;-1.948;2022-09-16T10:28:52;1.02;;;0.43;;
43363;SDS011;40636;52.424;-1.948;2022-09-16T10:31:37;0.45;;;0.40;;
43363;SDS011;40636;52.424;-1.948;2022-09-16T10:34:12;0.90;;;0.60;;
43363;SDS011;40636;52.424;-1.948;2022-09-16T10:37:02;0.30;;;0.25;;
43363;SDS011;40636;52.424;-1.948;2022-09-16T10:39:29;0.30;;;0.30;;
43363;SDS011;40636;52.424;-1.948;2022-09-16T10:41:57;0.30;;;0.30;;
43363;SDS011;40636;52.424;-1.948;2022-09-16T10:44:28;0.20;;;0.20;;
43363;SDS011;40636;52.424;-1.948;2022-09-16T10:47:01;0.38;;;0.38;;
43363;SDS011;40636;52.424;-1.948;2022-09-16T10:49:38;0.50;;;0.40;;
43363;SDS011;40636;52.424;-1.948;2022-09-16T10:52:14;0.20;;;0.20;;
43363;SDS011;40636;52.424;-1.948;2022-09-16T10:54:48;0.30;;;0.30;;
43363;SDS011;40636;52.424;-1.948;2022-09-16T11:00:26;0.40;;;0.40;;
43363;SDS011;40636;52.424;-1.948;2022-09-16T11:05:58;1.00;;;0.50;;
43363;SDS011;40636;52.424;-1.948;2022-09-16T11:22:34;0.63;;;0.60;;
43363;SDS011;40636;52.424;-1.948;2022-09-16T11:42:05;0.70;;;0.50;;
43363;SDS011;40636;52.424;-1.948;2022-09-16T11:56:17;0.55;;;0.55;;
43363;SDS011;40636;52.424;-1.948;2022-09-16T11:58:56;0.60;;;0.60;;
43363;SDS011;40636;52.424;-1.948;2022-09-16T12:07:08;0.38;;;0.30;;
43363;SDS011;40636;52.424;-1.948;2022-09-16T12:12:45;1.58;;;0.50;;
43363;SDS011;40636;52.424;-1.948;2022-09-16T12:18:11;0.65;;;0.43;;
43363;SDS011;40636;52.424;-1.948;2022-09-16T12:23:29;0.30;;;0.30;;
43363;SDS011;40636;52.424;-1.948;2022-09-16T12:26:07;0.45;;;0.40;;
43363;SDS011;40636;52.424;-1.948;2022-09-16T12:31:26;0.52;;;0.43;;
43363;SDS011;40636;52.424;-1.948;2022-09-16T12:34:02;0.38;;;0.38;;
43363;SDS011;40636;52.424;-1.948;2022-09-16T12:36:35;0.40;;;0.40;;
43363;SDS011;40636;52.424;-1.948;2022-09-16T12:39:07;0.68;;;0.40;;
43363;SDS011;40636;52.424;-1.948;2022-09-16T12:52:47;0.43;;;0.40;;
43363;SDS011;40636;52.424;-1.948;2022-09-16T12:58:18;4.13;;;0.45;;
43363;SDS011;40636;52.424;-1.948;2022-09-16T13:03:38;0.57;;;0.57;;
43363;SDS011;40636;52.424;-1.948;2022-09-16T13:06:27;0.63;;;0.30;;
43363;SDS011;40636;52.424;-1.948;2022-09-16T13:09:10;1.20;;;0.65;;
43363;SDS011;40636;52.424;-1.948;2022-09-16T13:11:40;0.68;;;0.20;;
43363;SDS011;40636;52.424;-1.948;2022-09-16T13:14:28;0.82;;;0.82;;
43363;SDS011;40636;52.424;-1.948;2022-09-16T13:16:58;0.40;;;0.40;;
43363;SDS011;40636;52.424;-1.948;2022-09-16T13:27:38;3.05;;;0.70;;
43363;SDS011;40636;52.424;-1.948;2022-09-16T13:32:55;0.60;;;0.60;;
43363;SDS011;40636;52.424;-1.948;2022-09-16T13:37:58;0.38;;;0.38;;
43363;SDS011;40636;52.424;-1.948;2022-09-16T13:40:27;0.30;;;0.28;;
43363;SDS011;40636;52.424;-1.948;2022-09-16T13:43:10;0.30;;;0.30;;
43363;SDS011;40636;52.424;-1.948;2022-09-16T13:45:40;0.95;;;0.47;;
43363;SDS011;40636;52.424;-1.948;2022-09-16T13:48:11;0.20;;;0.20;;
43363;SDS011;40636;52.424;-1.948;2022-09-16T13:50:46;0.57;;;0.55;;
43363;SDS011;40636;52.424;-1.948;2022-09-16T13:53:31;2.95;;;0.93;;
43363;SDS011;40636;52.424;-1.948;2022-09-16T14:02:22;0.43;;;0.25;;
43363;SDS011;40636;52.424;-1.948;2022-09-16T14:13:12;0.55;;;0.50;;
43363;SDS011;40636;52.424;-1.948;2022-09-16T14:15:48;1.58;;;0.50;;
43363;SDS011;40636;52.424;-1.948;2022-09-16T14:18:18;0.85;;;0.50;;
43363;SDS011;40636;52.424;-1.948;2022-09-16T14:21:02;1.38;;;0.60;;
43363;SDS011;40636;52.424;-1.948;2022-09-16T14:23:42;0.57;;;0.47;;
43363;SDS011;40636;52.424;-1.948;2022-09-16T14:26:31;0.43;;;0.40;;
43363;SDS011;40636;52.424;-1.948;2022-09-16T14:29:03;0.30;;;0.30;;
43363;SDS011;40636;52.424;-1.948;2022-09-16T14:31:31;2.83;;;0.50;;
43363;SDS011;40636;52.424;-1.948;2022-09-16T14:34:00;0.85;;;0.40;;
43363;SDS011;40636;52.424;-1.948;2022-09-16T14:36:34;0.30;;;0.30;;
43363;SDS011;40636;52.424;-1.948;2022-09-16T14:41:36;0.40;;;0.35;;
43363;SDS011;40636;52.424;-1.948;2022-09-16T14:44:15;0.52;;;0.52;;
43363;SDS011;40636;52.424;-1.948;2022-09-16T14:46:59;0.85;;;0.40;;
43363;SDS011;40636;52.424;-1.948;2022-09-16T14:49:39;0.40;;;0.40;;
43363;SDS011;40636;52.424;-1.948;2022-09-16T14:52:14;0.45;;;0.40;;
43363;SDS011;40636;52.424;-1.948;2022-09-16T14:54:45;0.40;;;0.40;;
43363;SDS011;40636;52.424;-1.948;2022-09-16T14:57:16;1.10;;;0.60;;
43363;SDS011;40636;52.424;-1.948;2022-09-16T14:59:49;0.77;;;0.45;;
43363;SDS011;40636;52.424;-1.948;2022-09-16T15:02:25;0.32;;;0.32;;
43363;SDS011;40636;52.424;-1.948;2022-09-16T15:04:57;0.50;;;0.30;;
43363;SDS011;40636;52.424;-1.948;2022-09-16T15:07:34;0.65;;;0.65;;
43363;SDS011;40636;52.424;-1.948;2022-09-16T15:10:24;0.93;;;0.40;;
43363;SDS011;40636;52.424;-1.948;2022-09-16T15:13:08;0.57;;;0.40;;
43363;SDS011;40636;52.424;-1.948;2022-09-16T15:15:43;0.28;;;0.28;;
43363;SDS011;40636;52.424;-1.948;2022-09-16T15:18:33;0.50;;;0.40;;
43363;SDS011;40636;52.424;-1.948;2022-09-16T15:23:54;0.30;;;0.30;;
43363;SDS011;40636;52.424;-1.948;2022-09-16T15:26:45;0.50;;;0.43;;
43363;SDS011;40636;52.424;-1.948;2022-09-16T15:29:12;0.40;;;0.38;;
43363;SDS011;40636;52.424;-1.948;2022-09-16T15:31:51;1.25;;;0.40;;
43363;SDS011;40636;52.424;-1.948;2022-09-16T15:36:48;0.30;;;0.30;;
43363;SDS011;40636;52.424;-1.948;2022-09-16T15:44:35;0.40;;;0.40;;
43363;SDS011;40636;52.424;-1.948;2022-09-16T15:47:14;0.90;;;0.47;;
43363;SDS011;40636;52.424;-1.948;2022-09-16T15:52:49;0.30;;;0.30;;
43363;SDS011;40636;52.424;-1.948;2022-09-16T15:55:24;2.10;;;0.40;;
43363;SDS011;40636;52.424;-1.948;2022-09-16T15:57:56;0.20;;;0.20;;
43363;SDS011;40636;52.424;-1.948;2022-09-16T16:00:53;0.30;;;0.30;;
43363;SDS011;40636;52.424;-1.948;2022-09-16T16:03:53;0.38;;;0.38;;
43363;SDS011;40636;52.424;-1.948;2022-09-16T16:11:53;1.75;;;0.47;;
43363;SDS011;40636;52.424;-1.948;2022-09-16T16:14:26;2.83;;;0.47;;
43363;SDS011;40636;52.424;-1.948;2022-09-16T16:16:59;0.65;;;0.30;;
43363;SDS011;40636;52.424;-1.948;2022-09-16T16:19:41;1.23;;;0.43;;
43363;SDS011;40636;52.424;-1.948;2022-09-16T16:22:09;0.25;;;0.25;;
43363;SDS011;40636;52.424;-1.948;2022-09-16T16:24:37;0.57;;;0.22;;
43363;SDS011;40636;52.424;-1.948;2022-09-16T16:27:04;1.17;;;0.25;;
43363;SDS011;40636;52.424;-1.948;2022-09-16T16:29:31;1.08;;;0.82;;
43363;SDS011;40636;52.424;-1.948;2022-09-16T16:34:35;0.60;;;0.40;;
43363;SDS011;40636;52.424;-1.948;2022-09-16T16:37:03;2.08;;;0.50;;
43363;SDS011;40636;52.424;-1.948;2022-09-16T16:39:31;0.63;;;0.50;;
43363;SDS011;40636;52.424;-1.948;2022-09-16T16:41:57;0.30;;;0.30;;
43363;SDS011;40636;52.424;-1.948;2022-09-16T16:44:24;0.30;;;0.30;;
43363;SDS011;40636;52.424;-1.948;2022-09-16T16:46:54;0.38;;;0.38;;
43363;SDS011;40636;52.424;-1.948;2022-09-16T16:49:21;1.88;;;0.35;;
43363;SDS011;40636;52.424;-1.948;2022-09-16T16:51:52;0.43;;;0.43;;
43363;SDS011;40636;52.424;-1.948;2022-09-16T16:54:23;0.25;;;0.25;;
43363;SDS011;40636;52.424;-1.948;2022-09-16T16:56:50;0.50;;;0.38;;
43363;SDS011;40636;52.424;-1.948;2022-09-16T16:59:18;0.57;;;0.43;;
43363;SDS011;40636;52.424;-1.948;2022-09-16T17:01:45;0.30;;;0.30;;
43363;SDS011;40636;52.424;-1.948;2022-09-16T17:04:14;1.40;;;0.43;;
43363;SDS011;40636;52.424;-1.948;2022-09-16T17:06:41;0.93;;;0.40;;
43363;SDS011;40636;52.424;-1.948;2022-09-16T17:09:10;0.90;;;0.50;;
43363;SDS011;40636;52.424;-1.948;2022-09-16T17:14:25;0.77;;;0.47;;
43363;SDS011;40636;52.424;-1.948;2022-09-16T17:16:56;2.22;;;0.40;;
43363;SDS011;40636;52.424;-1.948;2022-09-16T17:19:23;1.23;;;0.50;;
43363;SDS011;40636;52.424;-1.948;2022-09-16T17:21:51;0.40;;;0.40;;
43363;SDS011;40636;52.424;-1.948;2022-09-16T17:24:19;0.68;;;0.50;;
43363;SDS011;40636;52.424;-1.948;2022-09-16T17:26:45;0.77;;;0.65;;
43363;SDS011;40636;52.424;-1.948;2022-09-16T17:29:13;0.63;;;0.40;;
43363;SDS011;40636;52.424;-1.948;2022-09-16T17:31:41;0.73;;;0.40;;
43363;SDS011;40636;52.424;-1.948;2022-09-16T17:34:11;1.25;;;0.30;;
43363;SDS011;40636;52.424;-1.948;2022-09-16T17:36:39;1.58;;;0.52;;
43363;SDS011;40636;52.424;-1.948;2022-09-16T17:39:15;0.43;;;0.28;;
43363;SDS011;40636;52.424;-1.948;2022-09-16T17:41:44;0.88;;;0.55;;
43363;SDS011;40636;52.424;-1.948;2022-09-16T17:44:14;1.75;;;0.70;;
43363;SDS011;40636;52.424;-1.948;2022-09-16T17:46:41;1.35;;;0.60;;
43363;SDS011;40636;52.424;-1.948;2022-09-16T17:49:13;0.40;;;0.40;;
43363;SDS011;40636;52.424;-1.948;2022-09-16T17:51:50;0.57;;;0.40;;
43363;SDS011;40636;52.424;-1.948;2022-09-16T17:54:17;1.52;;;0.40;;
43363;SDS011;40636;52.424;-1.948;2022-09-16T17:56:44;1.35;;;1.15;;
43363;SDS011;40636;52.424;-1.948;2022-09-16T17:59:11;0.73;;;0.50;;
43363;SDS011;40636;52.424;-1.948;2022-09-16T18:01:39;0.52;;;0.52;;
43363;SDS011;40636;52.424;-1.948;2022-09-16T18:04:08;0.68;;;0.57;;
43363;SDS011;40636;52.424;-1.948;2022-09-16T18:06:40;1.20;;;0.60;;
43363;SDS011;40636;52.424;-1.948;2022-09-16T18:09:09;1.50;;;0.77;;
43363;SDS011;40636;52.424;-1.948;2022-09-16T18:15:03;0.80;;;0.57;;
43363;SDS011;40636;52.424;-1.948;2022-09-16T18:17:31;3.28;;;0.80;;
43363;SDS011;40636;52.424;-1.948;2022-09-16T18:20:04;1.48;;;0.80;;
43363;SDS011;40636;52.424;-1.948;2022-09-16T18:22:32;1.58;;;0.82;;
43363;SDS011;40636;52.424;-1.948;2022-09-16T18:24:59;2.25;;;0.65;;
43363;SDS011;40636;52.424;-1.948;2022-09-16T18:27:26;1.50;;;0.75;;
43363;SDS011;40636;52.424;-1.948;2022-09-16T18:29:52;1.05;;;0.60;;
43363;SDS011;40636;52.424;-1.948;2022-09-16T18:35:29;2.55;;;0.80;;
43363;SDS011;40636;52.424;-1.948;2022-09-16T18:37:57;1.10;;;0.82;;
43363;SDS011;40636;52.424;-1.948;2022-09-16T18:40:24;1.33;;;0.60;;
43363;SDS011;40636;52.424;-1.948;2022-09-16T18:42:51;2.20;;;0.68;;
43363;SDS011;40636;52.424;-1.948;2022-09-16T18:45:18;3.40;;;1.05;;
43363;SDS011;40636;52.424;-1.948;2022-09-16T18:47:44;0.93;;;0.55;;
43363;SDS011;40636;52.424;-1.948;2022-09-16T18:50:11;1.40;;;0.60;;
43363;SDS011;40636;52.424;-1.948;2022-09-16T18:55:28;1.73;;;0.60;;
43363;SDS011;40636;52.424;-1.948;2022-09-16T18:57:56;1.17;;;0.85;;
43363;SDS011;40636;52.424;-1.948;2022-09-16T19:00:23;0.82;;;0.70;;
43363;SDS011;40636;52.424;-1.948;2022-09-16T19:02:50;0.77;;;0.68;;
43363;SDS011;40636;52.424;-1.948;2022-09-16T19:05:20;0.93;;;0.90;;
43363;SDS011;40636;52.424;-1.948;2022-09-16T19:07:47;0.90;;;0.80;;
43363;SDS011;40636;52.424;-1.948;2022-09-16T19:10:14;0.85;;;0.73;;
43363;SDS011;40636;52.424;-1.948;2022-09-16T19:12:40;0.70;;;0.70;;